sensor_id;sensor_type;location;lat;lon;timestamp;temperature;humidity
9448;DHT22;4762;48.128;11.376;2023-03-31T00:00:39;6.50;99.90
9448;DHT22;4762;48.128;11.376;2023-03-31T00:02:43;6.50;99.90
9448;DHT22;4762;48.128;11.376;2023-03-31T00:04:46;6.60;99.90
9448;DHT22;4762;48.128;11.376;2023-03-31T00:06:48;6.70;99.90
9448;DHT22;4762;48.128;11.376;2023-03-31T00:08:50;6.70;99.90
9448;DHT22;4762;48.128;11.376;2023-03-31T00:10:57;6.60;99.90
9448;DHT22;4762;48.128;11.376;2023-03-31T00:12:56;6.60;99.90
9448;DHT22;4762;48.128;11.376;2023-03-31T00:14:58;6.60;99.90
9448;DHT22;4762;48.128;11.376;2023-03-31T00:17:00;6.60;99.90
9448;DHT22;4762;48.128;11.376;2023-03-31T00:19:03;6.60;99.90
9448;DHT22;4762;48.128;11.376;2023-03-31T00:21:11;6.60;99.90
9448;DHT22;4762;48.128;11.376;2023-03-31T00:23:13;6.60;99.90
9448;DHT22;4762;48.128;11.376;2023-03-31T00:25:15;6.60;99.90
9448;DHT22;4762;48.128;11.376;2023-03-31T00:27:18;6.70;99.90
9448;DHT22;4762;48.128;11.376;2023-03-31T00:29:20;6.80;99.90
9448;DHT22;4762;48.128;11.376;2023-03-31T00:31:23;6.80;99.90
9448;DHT22;4762;48.128;11.376;2023-03-31T00:33:25;6.80;99.90
9448;DHT22;4762;48.128;11.376;2023-03-31T00:35:28;6.80;99.90
9448;DHT22;4762;48.128;11.376;2023-03-31T00:37:30;6.90;99.90
9448;DHT22;4762;48.128;11.376;2023-03-31T00:39:32;7.00;99.90
9448;DHT22;4762;48.128;11.376;2023-03-31T00:41:35;7.00;99.90
9448;DHT22;4762;48.128;11.376;2023-03-31T00:43:37;7.10;99.90
9448;DHT22;4762;48.128;11.376;2023-03-31T00:45:39;7.10;99.90
9448;DHT22;4762;48.128;11.376;2023-03-31T00:47:42;7.10;99.90
9448;DHT22;4762;48.128;11.376;2023-03-31T00:49:44;7.10;99.90
9448;DHT22;4762;48.128;11.376;2023-03-31T00:51:47;7.20;99.90
9448;DHT22;4762;48.128;11.376;2023-03-31T00:53:50;7.20;99.90
9448;DHT22;4762;48.128;11.376;2023-03-31T00:55:52;7.20;99.90
9448;DHT22;4762;48.128;11.376;2023-03-31T00:57:54;7.30;99.90
9448;DHT22;4762;48.128;11.376;2023-03-31T00:59:58;7.30;99.90
9448;DHT22;4762;48.128;11.376;2023-03-31T01:01:59;7.30;99.90
9448;DHT22;4762;48.128;11.376;2023-03-31T01:04:02;7.30;99.90
9448;DHT22;4762;48.128;11.376;2023-03-31T01:06:05;7.30;99.90
9448;DHT22;4762;48.128;11.376;2023-03-31T01:08:07;7.30;99.90
9448;DHT22;4762;48.128;11.376;2023-03-31T01:10:09;7.30;99.90
9448;DHT22;4762;48.128;11.376;2023-03-31T01:12:11;7.20;99.90
9448;DHT22;4762;48.128;11.376;2023-03-31T01:14:14;7.20;99.90
9448;DHT22;4762;48.128;11.376;2023-03-31T01:16:18;7.20;99.90
9448;DHT22;4762;48.128;11.376;2023-03-31T01:18:20;7.20;99.90
9448;DHT22;4762;48.128;11.376;2023-03-31T01:20:44;7.20;99.90
9448;DHT22;4762;48.128;11.376;2023-03-31T01:22:55;7.20;99.90
9448;DHT22;4762;48.128;11.376;2023-03-31T01:25:04;7.00;99.90
9448;DHT22;4762;48.128;11.376;2023-03-31T01:27:27;6.90;99.90
9448;DHT22;4762;48.128;11.376;2023-03-31T01:29:33;6.70;99.90
9448;DHT22;4762;48.128;11.376;2023-03-31T01:31:40;6.60;99.90
9448;DHT22;4762;48.128;11.376;2023-03-31T01:36:15;6.50;99.90
9448;DHT22;4762;48.128;11.376;2023-03-31T01:38:45;6.50;99.90
9448;DHT22;4762;48.128;11.376;2023-03-31T01:42:58;6.60;99.90
9448;DHT22;4762;48.128;11.376;2023-03-31T01:45:04;6.80;99.90
9448;DHT22;4762;48.128;11.376;2023-03-31T01:48:30;6.80;99.90
9448;DHT22;4762;48.128;11.376;2023-03-31T01:49:44;6.90;99.90
9448;DHT22;4762;48.128;11.376;2023-03-31T01:51:51;7.00;99.90
9448;DHT22;4762;48.128;11.376;2023-03-31T01:53:55;6.90;99.90
9448;DHT22;4762;48.128;11.376;2023-03-31T01:55:59;6.90;99.90
9448;DHT22;4762;48.128;11.376;2023-03-31T01:58:01;7.00;99.90
9448;DHT22;4762;48.128;11.376;2023-03-31T02:00:05;6.90;99.90
9448;DHT22;4762;48.128;11.376;2023-03-31T02:02:07;6.90;99.90
9448;DHT22;4762;48.128;11.376;2023-03-31T02:04:12;7.00;99.90
9448;DHT22;4762;48.128;11.376;2023-03-31T02:06:18;7.00;99.90
9448;DHT22;4762;48.128;11.376;2023-03-31T02:08:21;7.00;99.90
9448;DHT22;4762;48.128;11.376;2023-03-31T02:10:22;7.00;99.90
9448;DHT22;4762;48.128;11.376;2023-03-31T02:12:25;7.00;99.90
9448;DHT22;4762;48.128;11.376;2023-03-31T02:14:27;7.10;99.90
9448;DHT22;4762;48.128;11.376;2023-03-31T02:16:29;7.10;99.90
9448;DHT22;4762;48.128;11.376;2023-03-31T02:18:31;7.10;99.90
9448;DHT22;4762;48.128;11.376;2023-03-31T02:20:34;7.20;99.90
9448;DHT22;4762;48.128;11.376;2023-03-31T02:22:37;7.20;99.90
9448;DHT22;4762;48.128;11.376;2023-03-31T02:24:38;7.30;99.90
9448;DHT22;4762;48.128;11.376;2023-03-31T02:26:44;7.30;99.90
9448;DHT22;4762;48.128;11.376;2023-03-31T02:28:44;7.30;99.90
9448;DHT22;4762;48.128;11.376;2023-03-31T02:30:50;7.30;99.90
9448;DHT22;4762;48.128;11.376;2023-03-31T02:32:50;7.30;99.90
9448;DHT22;4762;48.128;11.376;2023-03-31T02:34:53;7.40;99.90
9448;DHT22;4762;48.128;11.376;2023-03-31T02:36:55;7.40;99.90
9448;DHT22;4762;48.128;11.376;2023-03-31T02:39:02;7.50;99.90
9448;DHT22;4762;48.128;11.376;2023-03-31T02:41:00;7.50;99.90
9448;DHT22;4762;48.128;11.376;2023-03-31T02:43:02;7.50;99.90
9448;DHT22;4762;48.128;11.376;2023-03-31T02:45:06;7.50;99.90
9448;DHT22;4762;48.128;11.376;2023-03-31T02:47:09;7.40;99.90
9448;DHT22;4762;48.128;11.376;2023-03-31T02:49:11;7.40;99.90
9448;DHT22;4762;48.128;11.376;2023-03-31T02:51:29;7.40;99.90
9448;DHT22;4762;48.128;11.376;2023-03-31T02:58:35;7.40;99.90
9448;DHT22;4762;48.128;11.376;2023-03-31T03:00:56;7.40;99.90
9448;DHT22;4762;48.128;11.376;2023-03-31T03:05:42;7.40;99.90
9448;DHT22;4762;48.128;11.376;2023-03-31T03:07:45;7.40;99.90
9448;DHT22;4762;48.128;11.376;2023-03-31T03:10:26;7.40;99.90
9448;DHT22;4762;48.128;11.376;2023-03-31T03:12:27;7.40;99.90
9448;DHT22;4762;48.128;11.376;2023-03-31T03:14:33;7.50;99.90
9448;DHT22;4762;48.128;11.376;2023-03-31T03:16:35;7.40;99.90
9448;DHT22;4762;48.128;11.376;2023-03-31T03:18:35;7.50;99.90
9448;DHT22;4762;48.128;11.376;2023-03-31T03:20:38;7.50;99.90
9448;DHT22;4762;48.128;11.376;2023-03-31T03:22:39;7.80;99.90
9448;DHT22;4762;48.128;11.376;2023-03-31T03:24:42;8.00;99.90
9448;DHT22;4762;48.128;11.376;2023-03-31T03:26:44;8.10;99.90
9448;DHT22;4762;48.128;11.376;2023-03-31T03:28:47;8.10;99.90
9448;DHT22;4762;48.128;11.376;2023-03-31T03:30:49;8.20;99.90
9448;DHT22;4762;48.128;11.376;2023-03-31T03:32:51;8.20;99.90
9448;DHT22;4762;48.128;11.376;2023-03-31T03:34:54;8.20;99.90
9448;DHT22;4762;48.128;11.376;2023-03-31T03:36:56;8.10;99.90
9448;DHT22;4762;48.128;11.376;2023-03-31T03:38:59;8.10;99.90
9448;DHT22;4762;48.128;11.376;2023-03-31T03:41:01;8.20;99.90
9448;DHT22;4762;48.128;11.376;2023-03-31T03:43:03;8.10;99.90
9448;DHT22;4762;48.128;11.376;2023-03-31T03:45:06;8.00;99.90
9448;DHT22;4762;48.128;11.376;2023-03-31T03:49:27;7.90;99.90
9448;DHT22;4762;48.128;11.376;2023-03-31T03:51:29;7.90;99.90
9448;DHT22;4762;48.128;11.376;2023-03-31T03:53:31;7.80;99.90
9448;DHT22;4762;48.128;11.376;2023-03-31T03:55:35;7.80;99.90
9448;DHT22;4762;48.128;11.376;2023-03-31T03:57:37;7.80;99.90
9448;DHT22;4762;48.128;11.376;2023-03-31T03:59:40;7.80;99.90
9448;DHT22;4762;48.128;11.376;2023-03-31T04:01:42;7.80;99.90
9448;DHT22;4762;48.128;11.376;2023-03-31T04:03:44;7.80;99.90
9448;DHT22;4762;48.128;11.376;2023-03-31T04:05:46;7.80;99.90
9448;DHT22;4762;48.128;11.376;2023-03-31T04:07:52;7.70;99.90
9448;DHT22;4762;48.128;11.376;2023-03-31T04:09:54;7.70;99.90
9448;DHT22;4762;48.128;11.376;2023-03-31T04:11:57;7.70;99.90
9448;DHT22;4762;48.128;11.376;2023-03-31T04:13:59;7.70;99.90
9448;DHT22;4762;48.128;11.376;2023-03-31T04:16:01;7.60;99.90
9448;DHT22;4762;48.128;11.376;2023-03-31T04:18:03;7.60;99.90
9448;DHT22;4762;48.128;11.376;2023-03-31T04:20:07;7.60;99.90
9448;DHT22;4762;48.128;11.376;2023-03-31T04:22:09;7.60;99.90
9448;DHT22;4762;48.128;11.376;2023-03-31T04:24:11;7.60;99.90
9448;DHT22;4762;48.128;11.376;2023-03-31T04:26:15;7.60;99.90
9448;DHT22;4762;48.128;11.376;2023-03-31T04:28:16;7.50;99.90
9448;DHT22;4762;48.128;11.376;2023-03-31T04:30:21;7.50;99.90
9448;DHT22;4762;48.128;11.376;2023-03-31T04:32:24;7.50;99.90
9448;DHT22;4762;48.128;11.376;2023-03-31T04:34:26;7.40;99.90
9448;DHT22;4762;48.128;11.376;2023-03-31T04:36:28;7.40;99.90
9448;DHT22;4762;48.128;11.376;2023-03-31T04:38:31;7.50;99.90
9448;DHT22;4762;48.128;11.376;2023-03-31T04:40:33;7.50;99.90
9448;DHT22;4762;48.128;11.376;2023-03-31T04:42:35;7.50;99.90
9448;DHT22;4762;48.128;11.376;2023-03-31T04:44:37;7.50;99.90
9448;DHT22;4762;48.128;11.376;2023-03-31T04:46:39;7.50;99.90
9448;DHT22;4762;48.128;11.376;2023-03-31T04:48:42;7.50;99.90
9448;DHT22;4762;48.128;11.376;2023-03-31T04:50:45;7.40;99.90
9448;DHT22;4762;48.128;11.376;2023-03-31T04:52:46;7.40;99.90
9448;DHT22;4762;48.128;11.376;2023-03-31T04:54:49;7.40;99.90
9448;DHT22;4762;48.128;11.376;2023-03-31T04:56:52;7.30;99.90
9448;DHT22;4762;48.128;11.376;2023-03-31T04:58:54;7.30;99.90
9448;DHT22;4762;48.128;11.376;2023-03-31T05:00:56;7.20;99.90
9448;DHT22;4762;48.128;11.376;2023-03-31T05:02:58;7.20;99.90
9448;DHT22;4762;48.128;11.376;2023-03-31T05:05:01;7.20;99.90
9448;DHT22;4762;48.128;11.376;2023-03-31T05:07:03;7.30;99.90
9448;DHT22;4762;48.128;11.376;2023-03-31T05:09:06;7.30;99.90
9448;DHT22;4762;48.128;11.376;2023-03-31T05:11:09;7.30;99.90
9448;DHT22;4762;48.128;11.376;2023-03-31T05:13:11;7.20;99.90
9448;DHT22;4762;48.128;11.376;2023-03-31T05:15:13;7.30;99.90
9448;DHT22;4762;48.128;11.376;2023-03-31T05:17:15;7.20;99.90
9448;DHT22;4762;48.128;11.376;2023-03-31T05:19:18;7.20;99.90
9448;DHT22;4762;48.128;11.376;2023-03-31T05:21:20;7.20;99.90
9448;DHT22;4762;48.128;11.376;2023-03-31T05:23:23;7.30;99.90
9448;DHT22;4762;48.128;11.376;2023-03-31T05:25:25;7.30;99.90
9448;DHT22;4762;48.128;11.376;2023-03-31T05:27:27;7.30;99.90
9448;DHT22;4762;48.128;11.376;2023-03-31T05:29:30;7.30;99.90
9448;DHT22;4762;48.128;11.376;2023-03-31T05:31:32;7.20;99.90
9448;DHT22;4762;48.128;11.376;2023-03-31T05:33:34;7.20;99.90
9448;DHT22;4762;48.128;11.376;2023-03-31T05:35:36;7.20;99.90
9448;DHT22;4762;48.128;11.376;2023-03-31T05:37:39;7.20;99.90
9448;DHT22;4762;48.128;11.376;2023-03-31T05:39:41;7.20;99.90
9448;DHT22;4762;48.128;11.376;2023-03-31T05:41:43;7.20;99.90
9448;DHT22;4762;48.128;11.376;2023-03-31T05:43:45;7.20;99.90
9448;DHT22;4762;48.128;11.376;2023-03-31T05:45:48;7.20;99.90
9448;DHT22;4762;48.128;11.376;2023-03-31T05:47:50;7.30;99.90
9448;DHT22;4762;48.128;11.376;2023-03-31T05:49:52;7.30;99.90
9448;DHT22;4762;48.128;11.376;2023-03-31T05:51:56;7.40;99.90
9448;DHT22;4762;48.128;11.376;2023-03-31T05:53:59;7.50;99.90
9448;DHT22;4762;48.128;11.376;2023-03-31T05:56:03;7.40;99.90
9448;DHT22;4762;48.128;11.376;2023-03-31T05:58:05;7.40;99.90
9448;DHT22;4762;48.128;11.376;2023-03-31T06:00:09;7.50;99.90
9448;DHT22;4762;48.128;11.376;2023-03-31T06:02:12;7.60;99.90
9448;DHT22;4762;48.128;11.376;2023-03-31T06:04:14;7.60;99.90
9448;DHT22;4762;48.128;11.376;2023-03-31T06:06:18;7.70;99.90
9448;DHT22;4762;48.128;11.376;2023-03-31T06:08:21;7.90;99.90
9448;DHT22;4762;48.128;11.376;2023-03-31T06:10:23;7.80;99.90
9448;DHT22;4762;48.128;11.376;2023-03-31T06:12:25;7.80;99.90
9448;DHT22;4762;48.128;11.376;2023-03-31T06:14:27;7.90;99.90
9448;DHT22;4762;48.128;11.376;2023-03-31T06:16:31;7.90;99.90
9448;DHT22;4762;48.128;11.376;2023-03-31T06:18:33;7.90;99.90
9448;DHT22;4762;48.128;11.376;2023-03-31T06:20:36;8.00;99.90
9448;DHT22;4762;48.128;11.376;2023-03-31T06:22:38;8.10;99.90
9448;DHT22;4762;48.128;11.376;2023-03-31T06:24:41;8.10;99.90
9448;DHT22;4762;48.128;11.376;2023-03-31T06:26:47;8.10;99.90
9448;DHT22;4762;48.128;11.376;2023-03-31T06:28:50;8.20;99.90
9448;DHT22;4762;48.128;11.376;2023-03-31T06:31:00;8.30;99.90
9448;DHT22;4762;48.128;11.376;2023-03-31T06:33:02;8.30;99.90
9448;DHT22;4762;48.128;11.376;2023-03-31T06:35:05;8.40;99.90
9448;DHT22;4762;48.128;11.376;2023-03-31T06:37:07;8.50;99.90
9448;DHT22;4762;48.128;11.376;2023-03-31T06:39:10;8.40;99.90
9448;DHT22;4762;48.128;11.376;2023-03-31T06:41:13;8.50;99.90
9448;DHT22;4762;48.128;11.376;2023-03-31T06:43:14;8.60;99.90
9448;DHT22;4762;48.128;11.376;2023-03-31T06:45:17;8.60;99.90
9448;DHT22;4762;48.128;11.376;2023-03-31T06:47:24;8.60;99.90
9448;DHT22;4762;48.128;11.376;2023-03-31T06:49:34;8.60;99.90
9448;DHT22;4762;48.128;11.376;2023-03-31T06:51:38;8.60;99.90
9448;DHT22;4762;48.128;11.376;2023-03-31T06:53:40;8.60;99.90
9448;DHT22;4762;48.128;11.376;2023-03-31T06:55:42;8.60;99.90
9448;DHT22;4762;48.128;11.376;2023-03-31T06:57:44;8.60;99.90
9448;DHT22;4762;48.128;11.376;2023-03-31T06:59:47;8.60;99.90
9448;DHT22;4762;48.128;11.376;2023-03-31T07:01:49;8.50;99.90
9448;DHT22;4762;48.128;11.376;2023-03-31T07:03:56;8.50;99.90
9448;DHT22;4762;48.128;11.376;2023-03-31T07:05:59;8.40;99.90
9448;DHT22;4762;48.128;11.376;2023-03-31T07:08:01;8.30;99.90
9448;DHT22;4762;48.128;11.376;2023-03-31T07:10:05;8.30;99.90
9448;DHT22;4762;48.128;11.376;2023-03-31T07:12:07;8.30;99.90
9448;DHT22;4762;48.128;11.376;2023-03-31T07:14:10;8.20;99.90
9448;DHT22;4762;48.128;11.376;2023-03-31T07:16:19;8.30;99.90
9448;DHT22;4762;48.128;11.376;2023-03-31T07:18:23;8.30;99.90
9448;DHT22;4762;48.128;11.376;2023-03-31T07:20:27;8.30;99.90
9448;DHT22;4762;48.128;11.376;2023-03-31T07:22:35;8.30;99.90
9448;DHT22;4762;48.128;11.376;2023-03-31T07:24:37;8.20;99.90
9448;DHT22;4762;48.128;11.376;2023-03-31T07:26:43;8.20;99.90
9448;DHT22;4762;48.128;11.376;2023-03-31T07:28:47;8.20;99.90
9448;DHT22;4762;48.128;11.376;2023-03-31T07:30:49;8.10;99.90
9448;DHT22;4762;48.128;11.376;2023-03-31T07:32:51;8.10;99.90
9448;DHT22;4762;48.128;11.376;2023-03-31T07:34:57;8.20;99.90
9448;DHT22;4762;48.128;11.376;2023-03-31T07:37:04;8.10;99.90
9448;DHT22;4762;48.128;11.376;2023-03-31T07:39:06;8.20;99.90
9448;DHT22;4762;48.128;11.376;2023-03-31T07:41:09;8.20;99.90
9448;DHT22;4762;48.128;11.376;2023-03-31T07:43:12;8.20;99.90
9448;DHT22;4762;48.128;11.376;2023-03-31T07:45:15;8.20;99.90
9448;DHT22;4762;48.128;11.376;2023-03-31T07:47:20;8.30;99.90
9448;DHT22;4762;48.128;11.376;2023-03-31T07:49:26;8.30;99.90
9448;DHT22;4762;48.128;11.376;2023-03-31T07:51:29;8.30;99.90
9448;DHT22;4762;48.128;11.376;2023-03-31T07:53:31;8.20;99.90
9448;DHT22;4762;48.128;11.376;2023-03-31T07:55:35;8.10;99.90
9448;DHT22;4762;48.128;11.376;2023-03-31T07:57:39;8.30;99.90
9448;DHT22;4762;48.128;11.376;2023-03-31T07:59:45;8.40;99.90
9448;DHT22;4762;48.128;11.376;2023-03-31T08:01:47;8.50;99.90
9448;DHT22;4762;48.128;11.376;2023-03-31T08:03:49;8.90;99.90
9448;DHT22;4762;48.128;11.376;2023-03-31T08:05:51;9.00;99.90
9448;DHT22;4762;48.128;11.376;2023-03-31T08:07:53;8.90;99.90
9448;DHT22;4762;48.128;11.376;2023-03-31T08:09:56;9.10;99.90
9448;DHT22;4762;48.128;11.376;2023-03-31T08:12:07;9.20;99.90
9448;DHT22;4762;48.128;11.376;2023-03-31T08:14:10;9.20;99.90
9448;DHT22;4762;48.128;11.376;2023-03-31T08:16:16;9.00;99.90
9448;DHT22;4762;48.128;11.376;2023-03-31T08:18:18;9.00;99.90
9448;DHT22;4762;48.128;11.376;2023-03-31T08:20:20;8.90;99.90
9448;DHT22;4762;48.128;11.376;2023-03-31T08:22:25;8.90;99.90
9448;DHT22;4762;48.128;11.376;2023-03-31T08:24:27;8.90;99.90
9448;DHT22;4762;48.128;11.376;2023-03-31T08:26:29;8.90;99.90
9448;DHT22;4762;48.128;11.376;2023-03-31T08:28:36;8.90;99.90
9448;DHT22;4762;48.128;11.376;2023-03-31T08:30:39;8.80;99.90
9448;DHT22;4762;48.128;11.376;2023-03-31T08:32:41;8.90;99.90
9448;DHT22;4762;48.128;11.376;2023-03-31T08:34:43;9.10;99.90
9448;DHT22;4762;48.128;11.376;2023-03-31T08:36:45;9.10;99.90
9448;DHT22;4762;48.128;11.376;2023-03-31T08:38:48;9.20;99.90
9448;DHT22;4762;48.128;11.376;2023-03-31T08:40:57;9.20;99.90
9448;DHT22;4762;48.128;11.376;2023-03-31T08:43:02;9.10;99.90
9448;DHT22;4762;48.128;11.376;2023-03-31T08:45:05;9.10;99.90
9448;DHT22;4762;48.128;11.376;2023-03-31T08:47:09;9.10;99.90
9448;DHT22;4762;48.128;11.376;2023-03-31T08:49:14;9.10;99.90
9448;DHT22;4762;48.128;11.376;2023-03-31T08:51:17;9.30;99.90
9448;DHT22;4762;48.128;11.376;2023-03-31T08:53:23;9.60;99.90
9448;DHT22;4762;48.128;11.376;2023-03-31T08:55:24;9.80;99.90
9448;DHT22;4762;48.128;11.376;2023-03-31T08:57:29;9.90;99.90
9448;DHT22;4762;48.128;11.376;2023-03-31T08:59:30;10.00;99.90
9448;DHT22;4762;48.128;11.376;2023-03-31T09:01:37;10.20;99.90
9448;DHT22;4762;48.128;11.376;2023-03-31T09:03:43;10.20;99.90
9448;DHT22;4762;48.128;11.376;2023-03-31T09:05:45;10.30;99.90
9448;DHT22;4762;48.128;11.376;2023-03-31T09:08:11;10.30;99.90
9448;DHT22;4762;48.128;11.376;2023-03-31T09:10:22;10.30;99.90
9448;DHT22;4762;48.128;11.376;2023-03-31T09:12:24;10.30;99.90
9448;DHT22;4762;48.128;11.376;2023-03-31T09:14:35;10.30;99.90
9448;DHT22;4762;48.128;11.376;2023-03-31T09:19:28;10.60;99.90
9448;DHT22;4762;48.128;11.376;2023-03-31T09:23:44;11.70;99.90
9448;DHT22;4762;48.128;11.376;2023-03-31T09:25:44;12.20;99.90
9448;DHT22;4762;48.128;11.376;2023-03-31T09:27:46;12.30;99.90
9448;DHT22;4762;48.128;11.376;2023-03-31T09:29:52;12.50;99.90
9448;DHT22;4762;48.128;11.376;2023-03-31T09:31:54;12.80;99.90
9448;DHT22;4762;48.128;11.376;2023-03-31T09:33:58;12.70;99.90
9448;DHT22;4762;48.128;11.376;2023-03-31T09:35:59;12.40;99.90
9448;DHT22;4762;48.128;11.376;2023-03-31T09:38:01;12.30;99.90
9448;DHT22;4762;48.128;11.376;2023-03-31T09:40:04;12.40;99.90
9448;DHT22;4762;48.128;11.376;2023-03-31T09:42:11;12.70;99.90
9448;DHT22;4762;48.128;11.376;2023-03-31T09:44:22;13.20;99.90
9448;DHT22;4762;48.128;11.376;2023-03-31T09:46:29;13.10;99.90
9448;DHT22;4762;48.128;11.376;2023-03-31T09:48:29;13.10;99.90
9448;DHT22;4762;48.128;11.376;2023-03-31T09:50:32;13.30;99.90
9448;DHT22;4762;48.128;11.376;2023-03-31T09:52:39;13.70;99.90
9448;DHT22;4762;48.128;11.376;2023-03-31T09:54:43;14.10;99.90
9448;DHT22;4762;48.128;11.376;2023-03-31T09:56:45;14.00;99.90
9448;DHT22;4762;48.128;11.376;2023-03-31T09:58:47;13.60;99.90
9448;DHT22;4762;48.128;11.376;2023-03-31T10:01:00;13.20;99.90
9448;DHT22;4762;48.128;11.376;2023-03-31T10:03:03;13.20;99.90
9448;DHT22;4762;48.128;11.376;2023-03-31T10:05:04;13.60;99.90
9448;DHT22;4762;48.128;11.376;2023-03-31T10:07:10;13.90;99.90
9448;DHT22;4762;48.128;11.376;2023-03-31T10:09:10;14.30;99.90
9448;DHT22;4762;48.128;11.376;2023-03-31T10:11:12;14.60;99.90
9448;DHT22;4762;48.128;11.376;2023-03-31T10:13:16;14.90;99.90
9448;DHT22;4762;48.128;11.376;2023-03-31T10:15:19;14.70;99.90
9448;DHT22;4762;48.128;11.376;2023-03-31T10:17:23;14.20;99.90
9448;DHT22;4762;48.128;11.376;2023-03-31T10:19:27;13.70;99.90
9448;DHT22;4762;48.128;11.376;2023-03-31T10:21:34;13.70;99.90
9448;DHT22;4762;48.128;11.376;2023-03-31T10:23:34;14.10;99.90
9448;DHT22;4762;48.128;11.376;2023-03-31T10:25:35;14.30;99.90
9448;DHT22;4762;48.128;11.376;2023-03-31T10:27:39;14.50;99.90
9448;DHT22;4762;48.128;11.376;2023-03-31T10:29:41;14.50;99.90
9448;DHT22;4762;48.128;11.376;2023-03-31T10:31:43;14.40;99.90
9448;DHT22;4762;48.128;11.376;2023-03-31T10:33:47;14.50;99.90
9448;DHT22;4762;48.128;11.376;2023-03-31T10:35:53;14.30;99.90
9448;DHT22;4762;48.128;11.376;2023-03-31T10:37:53;14.80;99.90
9448;DHT22;4762;48.128;11.376;2023-03-31T10:40:01;15.00;99.90
9448;DHT22;4762;48.128;11.376;2023-03-31T10:42:11;15.10;99.90
9448;DHT22;4762;48.128;11.376;2023-03-31T10:44:29;15.20;99.90
9448;DHT22;4762;48.128;11.376;2023-03-31T10:46:46;15.00;99.90
9448;DHT22;4762;48.128;11.376;2023-03-31T10:48:49;14.70;99.90
9448;DHT22;4762;48.128;11.376;2023-03-31T10:50:51;14.50;99.90
9448;DHT22;4762;48.128;11.376;2023-03-31T10:52:59;14.50;99.90
9448;DHT22;4762;48.128;11.376;2023-03-31T10:54:57;14.60;99.90
9448;DHT22;4762;48.128;11.376;2023-03-31T10:57:03;14.60;99.90
9448;DHT22;4762;48.128;11.376;2023-03-31T11:03:42;14.10;99.90
9448;DHT22;4762;48.128;11.376;2023-03-31T11:05:45;13.90;99.90
9448;DHT22;4762;48.128;11.376;2023-03-31T11:08:12;13.60;99.90
9448;DHT22;4762;48.128;11.376;2023-03-31T11:10:23;13.50;99.90
9448;DHT22;4762;48.128;11.376;2023-03-31T11:12:26;13.30;99.90
9448;DHT22;4762;48.128;11.376;2023-03-31T11:14:28;13.20;99.90
9448;DHT22;4762;48.128;11.376;2023-03-31T11:16:33;12.40;99.90
9448;DHT22;4762;48.128;11.376;2023-03-31T11:18:48;11.70;99.90
9448;DHT22;4762;48.128;11.376;2023-03-31T11:20:50;10.60;99.90
9448;DHT22;4762;48.128;11.376;2023-03-31T11:22:58;10.00;99.90
9448;DHT22;4762;48.128;11.376;2023-03-31T11:25:04;9.70;99.90
9448;DHT22;4762;48.128;11.376;2023-03-31T11:27:27;9.60;99.90
9448;DHT22;4762;48.128;11.376;2023-03-31T11:29:35;9.60;99.90
9448;DHT22;4762;48.128;11.376;2023-03-31T11:31:47;9.70;99.90
9448;DHT22;4762;48.128;11.376;2023-03-31T11:33:55;10.00;99.90
9448;DHT22;4762;48.128;11.376;2023-03-31T11:36:21;10.20;99.90
9448;DHT22;4762;48.128;11.376;2023-03-31T11:38:45;10.30;99.90
9448;DHT22;4762;48.128;11.376;2023-03-31T11:40:53;10.40;99.90
9448;DHT22;4762;48.128;11.376;2023-03-31T11:43:01;10.70;99.90
9448;DHT22;4762;48.128;11.376;2023-03-31T11:45:11;11.10;99.90
9448;DHT22;4762;48.128;11.376;2023-03-31T11:47:14;11.30;99.90
9448;DHT22;4762;48.128;11.376;2023-03-31T11:49:19;11.40;99.90
9448;DHT22;4762;48.128;11.376;2023-03-31T11:51:41;11.50;99.90
9448;DHT22;4762;48.128;11.376;2023-03-31T11:53:41;11.80;99.90
9448;DHT22;4762;48.128;11.376;2023-03-31T11:55:44;12.10;99.90
9448;DHT22;4762;48.128;11.376;2023-03-31T11:57:49;12.40;99.90
9448;DHT22;4762;48.128;11.376;2023-03-31T11:59:54;12.70;99.90
9448;DHT22;4762;48.128;11.376;2023-03-31T12:02:03;12.90;99.90
9448;DHT22;4762;48.128;11.376;2023-03-31T12:04:18;12.80;99.90
9448;DHT22;4762;48.128;11.376;2023-03-31T12:06:18;13.00;99.90
9448;DHT22;4762;48.128;11.376;2023-03-31T12:08:27;13.20;99.90
9448;DHT22;4762;48.128;11.376;2023-03-31T12:10:33;13.10;99.90
9448;DHT22;4762;48.128;11.376;2023-03-31T12:12:36;12.90;99.90
9448;DHT22;4762;48.128;11.376;2023-03-31T12:16:45;13.30;99.90
9448;DHT22;4762;48.128;11.376;2023-03-31T12:19:58;13.10;99.90
9448;DHT22;4762;48.128;11.376;2023-03-31T12:21:11;13.00;99.90
9448;DHT22;4762;48.128;11.376;2023-03-31T12:23:16;13.00;99.90
9448;DHT22;4762;48.128;11.376;2023-03-31T12:25:19;13.60;99.90
9448;DHT22;4762;48.128;11.376;2023-03-31T12:27:23;14.00;99.90
9448;DHT22;4762;48.128;11.376;2023-03-31T12:29:27;13.70;99.90
9448;DHT22;4762;48.128;11.376;2023-03-31T12:31:28;13.70;99.90
9448;DHT22;4762;48.128;11.376;2023-03-31T12:33:31;13.40;99.90
9448;DHT22;4762;48.128;11.376;2023-03-31T12:36:10;13.10;99.90
9448;DHT22;4762;48.128;11.376;2023-03-31T12:38:23;13.10;99.90
9448;DHT22;4762;48.128;11.376;2023-03-31T12:43:07;13.10;99.90
9448;DHT22;4762;48.128;11.376;2023-03-31T12:45:32;13.10;99.90
9448;DHT22;4762;48.128;11.376;2023-03-31T12:47:55;13.00;99.90
9448;DHT22;4762;48.128;11.376;2023-03-31T12:50:18;12.90;99.90
9448;DHT22;4762;48.128;11.376;2023-03-31T12:54:58;13.10;99.90
9448;DHT22;4762;48.128;11.376;2023-03-31T12:57:04;13.10;99.90
9448;DHT22;4762;48.128;11.376;2023-03-31T12:59:16;13.10;96.10
9448;DHT22;4762;48.128;11.376;2023-03-31T13:01:22;12.90;97.30
9448;DHT22;4762;48.128;11.376;2023-03-31T13:05:50;12.40;82.90
9448;DHT22;4762;48.128;11.376;2023-03-31T13:07:53;12.20;90.10
9448;DHT22;4762;48.128;11.376;2023-03-31T13:09:56;12.00;87.90
9448;DHT22;4762;48.128;11.376;2023-03-31T13:12:00;11.80;81.00
9448;DHT22;4762;48.128;11.376;2023-03-31T13:14:05;11.50;90.70
9448;DHT22;4762;48.128;11.376;2023-03-31T13:16:07;11.20;95.50
9448;DHT22;4762;48.128;11.376;2023-03-31T13:18:17;11.00;96.10
9448;DHT22;4762;48.128;11.376;2023-03-31T13:20:23;10.60;99.90
9448;DHT22;4762;48.128;11.376;2023-03-31T13:22:30;10.70;99.90
9448;DHT22;4762;48.128;11.376;2023-03-31T13:24:32;11.60;99.90
9448;DHT22;4762;48.128;11.376;2023-03-31T13:26:36;12.20;99.90
9448;DHT22;4762;48.128;11.376;2023-03-31T13:28:39;12.40;99.90
9448;DHT22;4762;48.128;11.376;2023-03-31T13:30:43;12.50;99.90
9448;DHT22;4762;48.128;11.376;2023-03-31T13:32:55;12.60;99.90
9448;DHT22;4762;48.128;11.376;2023-03-31T13:34:55;12.80;97.20
9448;DHT22;4762;48.128;11.376;2023-03-31T13:37:03;12.30;97.70
9448;DHT22;4762;48.128;11.376;2023-03-31T13:39:11;12.70;98.30
9448;DHT22;4762;48.128;11.376;2023-03-31T13:41:20;12.90;92.00
9448;DHT22;4762;48.128;11.376;2023-03-31T13:46:14;13.00;87.30
9448;DHT22;4762;48.128;11.376;2023-03-31T13:48:19;13.30;87.90
9448;DHT22;4762;48.128;11.376;2023-03-31T13:50:29;13.30;86.90
9448;DHT22;4762;48.128;11.376;2023-03-31T13:52:33;13.10;84.80
9448;DHT22;4762;48.128;11.376;2023-03-31T13:55:05;13.10;87.20
9448;DHT22;4762;48.128;11.376;2023-03-31T13:59:46;13.60;86.90
9448;DHT22;4762;48.128;11.376;2023-03-31T14:04:19;13.70;81.30
9448;DHT22;4762;48.128;11.376;2023-03-31T14:06:32;13.30;85.00
9448;DHT22;4762;48.128;11.376;2023-03-31T14:08:54;13.20;90.70
9448;DHT22;4762;48.128;11.376;2023-03-31T14:10:55;13.00;91.80
9448;DHT22;4762;48.128;11.376;2023-03-31T14:13:07;13.00;94.40